sensor_id;sensor_type;location;lat;lon;timestamp;pressure;altitude;pressure_sealevel;temperature
82778;BMP280;72510;45.128;20.734;2023-10-31T00:09:06;99966.09;;;16.61
82778;BMP280;72510;45.128;20.734;2023-10-31T00:19:11;99941.03;;;16.53
82778;BMP280;72510;45.128;20.734;2023-10-31T00:29:22;99926.16;;;16.52
82778;BMP280;72510;45.128;20.734;2023-10-31T00:39:36;99904.81;;;16.41
82778;BMP280;72510;45.128;20.734;2023-10-31T00:49:56;99903.84;;;16.38
82778;BMP280;72510;45.128;20.734;2023-10-31T00:59:56;99909.53;;;16.21
82778;BMP280;72510;45.128;20.734;2023-10-31T01:09:57;99898.06;;;16.02
82778;BMP280;72510;45.128;20.734;2023-10-31T01:19:58;99873.47;;;15.79
82778;BMP280;72510;45.128;20.734;2023-10-31T01:29:58;99859.59;;;15.75
82778;BMP280;72510;45.128;20.734;2023-10-31T01:39:59;99856.59;;;15.78
82778;BMP280;72510;45.128;20.734;2023-10-31T01:50:00;99849.03;;;15.64
82778;BMP280;72510;45.128;20.734;2023-10-31T02:00:04;99841.91;;;15.66
82778;BMP280;72510;45.128;20.734;2023-10-31T02:10:12;99812.50;;;15.74
82778;BMP280;72510;45.128;20.734;2023-10-31T02:20:13;99818.06;;;15.95
82778;BMP280;72510;45.128;20.734;2023-10-31T02:30:14;99793.38;;;15.96
82778;BMP280;72510;45.128;20.734;2023-10-31T02:40:14;99784.22;;;16.05
82778;BMP280;72510;45.128;20.734;2023-10-31T02:50:15;99783.41;;;16.10
82778;BMP280;72510;45.128;20.734;2023-10-31T03:00:15;99786.72;;;16.16
82778;BMP280;72510;45.128;20.734;2023-10-31T03:10:16;99765.94;;;16.17
82778;BMP280;72510;45.128;20.734;2023-10-31T03:20:16;99762.53;;;16.30
82778;BMP280;72510;45.128;20.734;2023-10-31T03:30:17;99719.16;;;16.25
82778;BMP280;72510;45.128;20.734;2023-10-31T03:40:17;99726.72;;;16.27
82778;BMP280;72510;45.128;20.734;2023-10-31T03:50:18;99729.59;;;16.29
82778;BMP280;72510;45.128;20.734;2023-10-31T04:00:21;99759.19;;;16.42
82778;BMP280;72510;45.128;20.734;2023-10-31T04:10:23;99778.72;;;16.56
82778;BMP280;72510;45.128;20.734;2023-10-31T04:20:24;99804.66;;;16.67
82778;BMP280;72510;45.128;20.734;2023-10-31T04:30:24;99792.78;;;16.62
82778;BMP280;72510;45.128;20.734;2023-10-31T04:40:25;99830.31;;;16.81
82778;BMP280;72510;45.128;20.734;2023-10-31T04:50:29;99839.13;;;16.68
82778;BMP280;72510;45.128;20.734;2023-10-31T05:00:30;99844.50;;;16.68
82778;BMP280;72510;45.128;20.734;2023-10-31T05:10:31;99855.25;;;16.82
82778;BMP280;72510;45.128;20.734;2023-10-31T05:20:32;99866.53;;;16.94
82778;BMP280;72510;45.128;20.734;2023-10-31T05:30:49;99832.25;;;17.07
82778;BMP280;72510;45.128;20.734;2023-10-31T05:40:50;99756.56;;;16.77
82778;BMP280;72510;45.128;20.734;2023-10-31T05:51:22;99766.09;;;16.78
82778;BMP280;72510;45.128;20.734;2023-10-31T06:01:28;99801.47;;;16.95
82778;BMP280;72510;45.128;20.734;2023-10-31T06:11:28;99825.66;;;17.22
82778;BMP280;72510;45.128;20.734;2023-10-31T06:21:32;99786.69;;;17.36
82778;BMP280;72510;45.128;20.734;2023-10-31T06:31:51;99803.16;;;17.53
82778;BMP280;72510;45.128;20.734;2023-10-31T06:41:55;99798.88;;;17.71
82778;BMP280;72510;45.128;20.734;2023-10-31T06:55:35;99723.50;;;18.00
82778;BMP280;72510;45.128;20.734;2023-10-31T07:05:36;99716.28;;;18.02
82778;BMP280;72510;45.128;20.734;2023-10-31T07:15:37;99749.91;;;18.30
82778;BMP280;72510;45.128;20.734;2023-10-31T07:25:37;99713.75;;;18.62
82778;BMP280;72510;45.128;20.734;2023-10-31T07:35:38;99710.75;;;18.88
82778;BMP280;72510;45.128;20.734;2023-10-31T07:45:40;99688.34;;;19.40
82778;BMP280;72510;45.128;20.734;2023-10-31T07:55:40;99631.41;;;19.53
82778;BMP280;72510;45.128;20.734;2023-10-31T08:05:41;99638.63;;;19.43
82778;BMP280;72510;45.128;20.734;2023-10-31T08:15:41;99668.53;;;19.45
82778;BMP280;72510;45.128;20.734;2023-10-31T08:25:42;99717.50;;;19.49
82778;BMP280;72510;45.128;20.734;2023-10-31T08:35:42;99688.34;;;19.40
82778;BMP280;72510;45.128;20.734;2023-10-31T08:45:42;99667.25;;;19.46
82778;BMP280;72510;45.128;20.734;2023-10-31T08:55:43;99632.09;;;19.61
82778;BMP280;72510;45.128;20.734;2023-10-31T09:05:43;99646.66;;;19.81
82778;BMP280;72510;45.128;20.734;2023-10-31T09:15:44;99641.47;;;20.23
82778;BMP280;72510;45.128;20.734;2023-10-31T09:25:44;99629.38;;;20.57
82778;BMP280;72510;45.128;20.734;2023-10-31T09:35:45;99615.16;;;21.59
82778;BMP280;72510;45.128;20.734;2023-10-31T09:45:47;99614.91;;;21.65
82778;BMP280;72510;45.128;20.734;2023-10-31T09:55:47;99617.03;;;21.14
82778;BMP280;72510;45.128;20.734;2023-10-31T10:05:48;99628.00;;;20.99
82778;BMP280;72510;45.128;20.734;2023-10-31T10:15:51;99589.53;;;21.00
82778;BMP280;72510;45.128;20.734;2023-10-31T10:25:52;99583.59;;;21.02
82778;BMP280;72510;45.128;20.734;2023-10-31T10:35:54;99547.44;;;21.24
82778;BMP280;72510;45.128;20.734;2023-10-31T10:45:57;99505.28;;;22.49
82778;BMP280;72510;45.128;20.734;2023-10-31T10:56:00;99471.47;;;22.23
82778;BMP280;72510;45.128;20.734;2023-10-31T11:06:04;99432.09;;;22.22
82778;BMP280;72510;45.128;20.734;2023-10-31T11:16:13;99432.94;;;22.24
82778;BMP280;72510;45.128;20.734;2023-10-31T11:26:19;99424.78;;;22.05
82778;BMP280;72510;45.128;20.734;2023-10-31T11:36:19;99414.31;;;21.92
82778;BMP280;72510;45.128;20.734;2023-10-31T11:46:24;99412.25;;;22.29
82778;BMP280;72510;45.128;20.734;2023-10-31T11:56:24;99417.69;;;22.87
82778;BMP280;72510;45.128;20.734;2023-10-31T12:06:25;99384.72;;;24.27
82778;BMP280;72510;45.128;20.734;2023-10-31T12:16:28;99337.00;;;24.71
82778;BMP280;72510;45.128;20.734;2023-10-31T12:26:29;99351.97;;;24.94
82778;BMP280;72510;45.128;20.734;2023-10-31T12:36:30;99363.50;;;24.14
82778;BMP280;72510;45.128;20.734;2023-10-31T12:46:31;99361.06;;;24.08
82778;BMP280;72510;45.128;20.734;2023-10-31T12:56:39;99324.78;;;24.49
82778;BMP280;72510;45.128;20.734;2023-10-31T13:06:40;99321.19;;;24.34
82778;BMP280;72510;45.128;20.734;2023-10-31T13:16:40;99312.56;;;24.38
82778;BMP280;72510;45.128;20.734;2023-10-31T13:26:41;99306.47;;;23.95
82778;BMP280;72510;45.128;20.734;2023-10-31T13:36:43;99327.53;;;23.73
82778;BMP280;72510;45.128;20.734;2023-10-31T13:46:43;99323.44;;;23.40
82778;BMP280;72510;45.128;20.734;2023-10-31T13:56:44;99314.00;;;23.10
82778;BMP280;72510;45.128;20.734;2023-10-31T14:06:44;99322.16;;;23.01
82778;BMP280;72510;45.128;20.734;2023-10-31T14:16:46;99287.09;;;22.83
82778;BMP280;72510;45.128;20.734;2023-10-31T14:26:46;99301.78;;;22.80
82778;BMP280;72510;45.128;20.734;2023-10-31T14:36:47;99286.47;;;22.44
82778;BMP280;72510;45.128;20.734;2023-10-31T14:46:47;99266.75;;;22.14
82778;BMP280;72510;45.128;20.734;2023-10-31T14:56:47;99260.31;;;21.90
82778;BMP280;72510;45.128;20.734;2023-10-31T15:06:48;99258.16;;;21.79
82778;BMP280;72510;45.128;20.734;2023-10-31T15:16:49;99252.03;;;21.69
82778;BMP280;72510;45.128;20.734;2023-10-31T15:26:49;99407.75;;;21.58
82778;BMP280;72510;45.128;20.734;2023-10-31T15:36:49;99474.06;;;20.95
82778;BMP280;72510;45.128;20.734;2023-10-31T15:46:50;99514.03;;;20.70
82778;BMP280;72510;45.128;20.734;2023-10-31T15:56:52;99572.94;;;19.17
82778;BMP280;72510;45.128;20.734;2023-10-31T16:06:52;99600.63;;;18.05
82778;BMP280;72510;45.128;20.734;2023-10-31T16:16:53;99640.94;;;17.61
82778;BMP280;72510;45.128;20.734;2023-10-31T16:27:03;99680.84;;;17.20
82778;BMP280;72510;45.128;20.734;2023-10-31T16:48:15;99704.97;;;16.38
82778;BMP280;72510;45.128;20.734;2023-10-31T16:58:16;99689.41;;;15.78
82778;BMP280;72510;45.128;20.734;2023-10-31T17:08:28;99673.19;;;15.70
82778;BMP280;72510;45.128;20.734;2023-10-31T17:18:29;99690.91;;;15.60
82778;BMP280;72510;45.128;20.734;2023-10-31T17:28:50;99723.00;;;15.52
82778;BMP280;72510;45.128;20.734;2023-10-31T17:38:51;99779.38;;;15.52
82778;BMP280;72510;45.128;20.734;2023-10-31T17:48:53;99796.28;;;15.66
82778;BMP280;72510;45.128;20.734;2023-10-31T17:58:57;99816.56;;;15.43
82778;BMP280;72510;45.128;20.734;2023-10-31T18:09:02;99898.84;;;15.78
82778;BMP280;72510;45.128;20.734;2023-10-31T18:19:02;99855.81;;;15.83
82778;BMP280;72510;45.128;20.734;2023-10-31T18:29:03;99838.88;;;15.89
82778;BMP280;72510;45.128;20.734;2023-10-31T18:39:04;99829.94;;;15.67
82778;BMP280;72510;45.128;20.734;2023-10-31T18:49:05;99865.75;;;15.70
82778;BMP280;72510;45.128;20.734;2023-10-31T18:59:06;99837.91;;;15.54
82778;BMP280;72510;45.128;20.734;2023-10-31T19:09:06;99822.13;;;15.45
82778;BMP280;72510;45.128;20.734;2023-10-31T19:19:07;99855.69;;;15.57
82778;BMP280;72510;45.128;20.734;2023-10-31T19:29:27;99890.72;;;15.65
82778;BMP280;72510;45.128;20.734;2023-10-31T19:39:28;99843.84;;;15.47
82778;BMP280;72510;45.128;20.734;2023-10-31T19:49:32;99824.97;;;15.33
82778;BMP280;72510;45.128;20.734;2023-10-31T19:59:32;99830.34;;;15.33
82778;BMP280;72510;45.128;20.734;2023-10-31T20:09:33;99852.41;;;15.26
82778;BMP280;72510;45.128;20.734;2023-10-31T20:19:33;99841.97;;;15.17
82778;BMP280;72510;45.128;20.734;2023-10-31T20:29:34;99860.22;;;15.00
82778;BMP280;72510;45.128;20.734;2023-10-31T20:39:35;99857.63;;;14.88
82778;BMP280;72510;45.128;20.734;2023-10-31T20:49:41;99868.25;;;14.75
82778;BMP280;72510;45.128;20.734;2023-10-31T20:59:44;99907.13;;;14.57
82778;BMP280;72510;45.128;20.734;2023-10-31T21:09:44;99893.63;;;14.38
82778;BMP280;72510;45.128;20.734;2023-10-31T21:19:45;99900.69;;;14.36
82778;BMP280;72510;45.128;20.734;2023-10-31T21:29:47;99909.97;;;14.29
82778;BMP280;72510;45.128;20.734;2023-10-31T21:39:47;99901.06;;;14.15
82778;BMP280;72510;45.128;20.734;2023-10-31T21:49:48;99914.91;;;14.19
82778;BMP280;72510;45.128;20.734;2023-10-31T21:59:49;99909.56;;;14.13
82778;BMP280;72510;45.128;20.734;2023-10-31T22:09:49;99931.75;;;14.08
82778;BMP280;72510;45.128;20.734;2023-10-31T22:19:50;99958.78;;;14.10
82778;BMP280;72510;45.128;20.734;2023-10-31T22:29:50;99964.16;;;14.05
82778;BMP280;72510;45.128;20.734;2023-10-31T22:39:56;99990.66;;;14.08
82778;BMP280;72510;45.128;20.734;2023-10-31T22:49:57;100004.81;;;14.03
82778;BMP280;72510;45.128;20.734;2023-10-31T22:59:57;100044.75;;;13.96
82778;BMP280;72510;45.128;20.734;2023-10-31T23:09:58;100072.75;;;13.89
82778;BMP280;72510;45.128;20.734;2023-10-31T23:20:25;100080.56;;;13.93
82778;BMP280;72510;45.128;20.734;2023-10-31T23:30:26;100078.38;;;13.68
82778;BMP280;72510;45.128;20.734;2023-10-31T23:40:26;100095.88;;;13.36
82778;BMP280;72510;45.128;20.734;2023-10-31T23:50:31;100092.66;;;13.09
